Time;durP1;ratioP1;P1;durP2;ratioP2;P2;SDS_P1;SDS_P2;PMS_P1;PMS_P2;Temp;Humidity;BMP_temperature;BMP_pressure;BME280_temperature;BME280_humidity;BME280_pressure;Samples;Min_cycle;Max_cycle;Signal;HPM_P1;HPM_P2
2022/11/04 00:01:45;;;;;;;22.17;14.98;;;;;;;12.42;49.04;99760.31;5013389;28;20533;-78
2022/11/04 00:04:12;;;;;;;22.92;16.67;;;;;;;11.99;49.35;99693.97;5013250;28;20101;-78
2022/11/04 00:06:38;;;;;;;20.98;15.20;;;;;;;12.47;49.63;99783.59;5013018;28;20022;-78
2022/11/04 00:09:05;;;;;;;22.70;16.67;;;;;;;12.46;49.45;99785.41;5013192;28;20434;-78
2022/11/04 00:14:15;;;;;;;18.98;15.18;;;;;;;12.69;50.13;99814.47;5013014;28;20537;-79
2022/11/04 00:19:25;;;;;;;26.30;16.48;;;;;;;12.78;49.69;99815.19;5013433;28;20044;-79
2022/11/04 00:29:59;;;;;;;20.70;15.15;;;;;;;12.72;49.67;99783.13;5012978;28;20064;-79
2022/11/04 00:35:10;;;;;;;26.80;15.45;;;;;;;13.23;49.23;99852.03;5012824;28;20052;-79
2022/11/04 00:37:40;;;;;;;21.15;16.35;;;;;;;12.55;49.54;99775.53;5012838;28;20128;-79
2022/11/04 00:40:07;;;;;;;21.80;15.68;;;;;;;12.94;49.44;99807.00;5011287;28;20026;-78
2022/11/04 00:42:32;;;;;;;23.90;17.02;;;;;;;12.78;49.58;99786.84;5012495;28;20025;-79
2022/11/04 00:44:58;;;;;;;21.60;16.02;;;;;;;12.73;49.38;99784.75;5012515;28;20092;-78
2022/11/04 00:47:23;;;;;;;21.33;15.95;;;;;;;13.17;49.71;99857.25;5012409;28;20096;-78
2022/11/04 00:49:49;;;;;;;21.40;16.00;;;;;;;12.54;49.86;99756.19;5011216;28;20061;-79
2022/11/04 00:52:14;;;;;;;20.98;15.73;;;;;;;12.31;49.54;99729.81;5012453;28;20036;-79
2022/11/04 00:54:39;;;;;;;22.45;16.00;;;;;;;12.39;49.47;99736.84;5012398;28;20026;-78
2022/11/04 00:57:08;;;;;;;22.55;15.55;;;;;;;12.56;49.77;99795.72;5012323;28;20014;-78
2022/11/04 00:59:34;;;;;;;25.85;16.27;;;;;;;12.02;49.79;99693.63;5012152;28;20059;-78
2022/11/04 01:01:59;;;;;;;23.13;17.33;;;;;;;12.39;49.88;99764.16;5012099;28;20096;-79
2022/11/04 01:04:24;;;;;;;21.40;16.48;;;;;;;12.68;50.15;99804.88;5012168;28;20044;-79
2022/11/04 01:06:50;;;;;;;26.05;17.70;;;;;;;12.57;49.99;99802.66;5012321;28;20503;-78
2022/11/04 01:09:15;;;;;;;23.58;17.38;;;;;;;12.31;49.69;99752.84;5012125;28;20022;-79
2022/11/04 01:11:41;;;;;;;21.85;14.48;;;;;;;12.06;49.65;99702.00;5012089;28;20041;-79
2022/11/04 01:14:06;;;;;;;19.70;15.07;;;;;;;11.87;49.53;99668.97;5010791;28;20029;-79
2022/11/04 01:16:32;;;;;;;23.75;16.10;;;;;;;12.80;50.19;99835.19;5012145;28;20014;-78
2022/11/04 01:18:58;;;;;;;23.40;16.20;;;;;;;11.83;50.09;99677.44;5011924;28;20490;-79
2022/11/04 01:21:23;;;;;;;22.50;16.58;;;;;;;12.69;49.81;99819.75;5011756;28;20049;-78
2022/11/04 01:23:49;;;;;;;22.20;14.90;;;;;;;12.65;49.77;99819.31;5011838;28;20029;-78
2022/11/04 01:26:17;;;;;;;23.25;16.40;;;;;;;12.88;49.96;99823.66;5011670;28;20087;-78
2022/11/04 01:28:43;;;;;;;20.27;15.00;;;;;;;11.73;50.04;99627.44;5011783;28;20021;-79
2022/11/04 01:31:14;;;;;;;19.35;14.95;;;;;;;12.31;49.66;99721.88;5011828;28;20033;-79
2022/11/04 01:33:39;;;;;;;25.27;16.20;;;;;;;12.92;49.49;99806.38;5012087;28;20083;-79
2022/11/04 01:36:06;;;;;;;22.48;15.55;;;;;;;12.77;49.96;99785.22;5010450;28;20022;-79
2022/11/04 01:38:32;;;;;;;25.02;16.63;;;;;;;12.07;49.59;99675.38;5011271;28;20498;-79
2022/11/04 01:40:57;;;;;;;22.40;15.15;;;;;;;12.12;49.38;99700.44;5010175;28;20017;-79
2022/11/04 01:43:42;;;;;;;24.05;15.25;;;;;;;12.86;50.04;99812.41;5011792;28;20022;-79
2022/11/04 01:46:11;;;;;;;22.15;14.68;;;;;;;12.50;49.77;99762.84;5011241;28;20036;-79
2022/11/04 01:48:37;;;;;;;22.80;17.40;;;;;;;12.60;49.89;99778.44;5011384;28;20022;-79
2022/11/04 01:51:03;;;;;;;22.70;16.40;;;;;;;12.73;50.22;99826.31;5010111;28;20022;-78
2022/11/04 01:53:36;;;;;;;22.77;15.80;;;;;;;12.70;50.36;99805.50;5011519;28;20022;-78
2022/11/04 01:56:10;;;;;;;22.45;16.40;;;;;;;12.63;50.32;99816.03;5011480;28;20025;-79
2022/11/04 01:58:39;;;;;;;20.05;16.27;;;;;;;12.00;50.43;99730.03;5011491;28;20026;-79
2022/11/04 02:01:07;;;;;;;18.33;16.15;;;;;;;12.53;50.79;99810.16;5010211;28;20456;-79
2022/11/04 02:03:43;;;;;;;20.33;16.75;;;;;;;12.50;50.87;99812.34;5010213;28;20026;-78
2022/11/04 02:06:10;;;;;;;22.98;17.88;;;;;;;12.08;50.93;99758.22;5011177;28;20057;-79
2022/11/04 02:08:37;;;;;;;20.17;16.52;;;;;;;11.49;51.20;99656.78;5011265;28;20041;-78
2022/11/04 02:11:03;;;;;;;23.08;16.50;;;;;;;12.17;51.37;99777.47;5011370;28;20576;-78
2022/11/04 02:13:34;;;;;;;21.73;17.45;;;;;;;12.04;51.29;99789.53;5011388;28;20442;-79
2022/11/04 02:16:47;;;;;;;26.17;17.80;;;;;;;12.25;51.32;99806.50;5011755;28;20525;-79
2022/11/04 02:19:31;;;;;;;22.58;16.70;;;;;;;12.12;51.42;99801.84;5009263;28;20034;-78
2022/11/04 02:21:56;;;;;;;21.92;15.80;;;;;;;12.12;51.06;99801.84;5008214;28;20033;-79
2022/11/04 02:24:37;;;;;;;22.65;15.85;;;;;;;12.16;51.74;99803.13;5010017;28;20030;-79
2022/11/04 02:27:24;;;;;;;21.13;15.13;;;;;;;12.23;51.48;99798.75;5011193;28;20026;-78
2022/11/04 02:29:56;;;;;;;24.42;17.58;;;;;;;12.29;51.17;99802.50;5011303;28;20490;-78
2022/11/04 02:32:36;;;;;;;26.42;17.27;;;;;;;12.31;50.63;99803.13;5009905;28;20032;-79
2022/11/04 02:35:11;;;;;;;21.70;16.38;;;;;;;12.26;51.21;99797.56;5010065;28;20418;-78
2022/11/04 02:38:09;;;;;;;24.67;16.60;;;;;;;11.65;51.35;99720.09;5009949;28;20098;-79
2022/11/04 02:40:43;;;;;;;28.83;16.73;;;;;;;12.09;51.19;99797.75;5011271;28;20029;-78
2022/11/04 02:43:33;;;;;;;25.73;16.73;;;;;;;11.18;51.36;99689.47;5011202;28;20049;-79
2022/11/04 02:46:07;;;;;;;24.40;18.10;;;;;;;10.22;51.45;99510.44;5009737;28;20029;-79
2022/11/04 02:48:38;;;;;;;24.15;18.33;;;;;;;12.03;51.27;99808.22;5011101;28;20026;-79
2022/11/04 02:51:21;;;;;;;23.35;16.88;;;;;;;12.03;51.72;99797.66;5012563;28;20510;-79
2022/11/04 02:53:57;;;;;;;24.75;17.80;;;;;;;11.78;51.98;99755.53;5014678;28;20033;-78
2022/11/04 02:56:25;;;;;;;28.33;18.65;;;;;;;11.31;51.44;99673.00;5014518;28;20026;-79
2022/11/04 02:59:02;;;;;;;22.90;18.30;;;;;;;11.44;52.04;99679.31;5014575;28;20134;-78
2022/11/04 03:01:34;;;;;;;22.38;16.88;;;;;;;11.67;51.72;99713.63;5014483;28;20503;-79
2022/11/04 03:04:06;;;;;;;25.33;18.73;;;;;;;11.89;51.47;99754.28;5014561;28;20075;-79
2022/11/04 03:06:34;;;;;;;25.45;17.15;;;;;;;12.21;52.07;99786.69;5014129;28;20403;-79
2022/11/04 03:09:01;;;;;;;27.58;18.10;;;;;;;11.89;51.53;99732.28;5012984;28;20057;-79
2022/11/04 03:11:27;;;;;;;27.52;19.08;;;;;;;11.74;51.59;99705.78;5014031;28;20018;-78
2022/11/04 03:14:18;;;;;;;24.58;18.50;;;;;;;12.12;51.47;99762.16;5014109;28;20099;-79
2022/11/04 03:16:47;;;;;;;25.58;18.55;;;;;;;11.73;51.15;99680.34;5010222;28;20511;-78
2022/11/04 03:19:13;;;;;;;25.60;19.08;;;;;;;12.33;51.52;99774.66;5013990;28;20514;-78
2022/11/04 03:21:50;;;;;;;28.60;19.88;;;;;;;12.37;51.19;99797.09;5014082;28;20021;-79
2022/11/04 03:24:16;;;;;;;22.40;18.40;;;;;;;12.39;51.00;99779.22;5012738;28;20037;-78
2022/11/04 03:26:59;;;;;;;29.92;19.40;;;;;;;12.37;51.20;99767.97;5013942;28;20022;-79
2022/11/04 03:29:27;;;;;;;24.85;17.67;;;;;;;12.36;50.76;99772.44;5013927;28;20025;-79
2022/11/04 03:32:16;;;;;;;29.38;18.55;;;;;;;12.36;51.17;99767.16;5013872;28;20022;-79
2022/11/04 03:34:41;;;;;;;22.30;17.38;;;;;;;12.37;51.01;99794.47;5013211;28;20076;-79
2022/11/04 03:37:07;;;;;;;24.38;19.05;;;;;;;12.08;51.23;99729.13;5013889;28;20022;-78
2022/11/04 03:39:33;;;;;;;25.40;17.85;;;;;;;11.98;50.87;99716.16;5013844;28;20030;-78
2022/11/04 03:42:18;;;;;;;32.80;18.13;;;;;;;11.69;51.11;99693.09;5012438;28;20033;-79
2022/11/04 03:45:05;;;;;;;21.02;16.80;;;;;;;11.88;51.50;99728.81;5012367;28;20030;-78
2022/11/04 03:47:31;;;;;;;24.08;18.00;;;;;;;11.26;51.24;99639.19;5013249;28;20025;-79
2022/11/04 03:50:08;;;;;;;24.52;18.08;;;;;;;11.36;51.77;99660.88;5013573;28;20030;-79
2022/11/04 03:52:34;;;;;;;23.92;17.75;;;;;;;11.54;51.82;99728.47;5012116;28;20018;-79
2022/11/04 03:55:01;;;;;;;30.17;20.30;;;;;;;11.43;52.22;99693.53;5013465;28;20030;-78
2022/11/04 03:57:55;;;;;;;30.27;20.58;;;;;;;12.01;52.76;99775.84;5013469;28;20022;-78
2022/11/04 04:00:22;;;;;;;25.88;19.65;;;;;;;12.02;52.35;99780.94;5010237;28;20034;-79
2022/11/04 04:03:17;;;;;;;24.58;18.15;;;;;;;11.15;52.15;99647.53;5012484;28;20026;-79
2022/11/04 04:06:02;;;;;;;28.63;20.85;;;;;;;11.63;52.21;99730.03;5013300;28;20025;-78
2022/11/04 04:08:34;;;;;;;28.20;19.70;;;;;;;11.86;53.01;99781.09;5011795;28;20049;-79
2022/11/04 04:11:05;;;;;;;29.98;20.92;;;;;;;11.07;52.86;99658.16;5011859;28;20018;-78
2022/11/04 04:13:43;;;;;;;24.58;19.88;;;;;;;11.78;52.88;99778.53;5013056;28;20018;-78
2022/11/04 04:16:35;;;;;;;24.63;18.83;;;;;;;11.72;53.22;99777.38;5013220;28;20014;-78
2022/11/04 04:19:22;;;;;;;30.08;21.10;;;;;;;11.68;52.82;99778.75;5012823;28;20049;-79
2022/11/04 04:21:54;;;;;;;27.67;18.60;;;;;;;11.67;53.04;99778.91;5013126;28;20034;-78
2022/11/04 04:29:54;;;;;;;28.73;19.38;;;;;;;11.19;52.96;99698.22;5012867;28;20493;-78
2022/11/04 04:32:23;;;;;;;26.67;19.05;;;;;;;11.45;53.23;99747.03;5012762;28;20018;-78
2022/11/04 04:34:48;;;;;;;28.23;19.77;;;;;;;11.16;53.04;99715.25;5012695;28;20026;-78
2022/11/04 04:37:26;;;;;;;29.20;22.27;;;;;;;11.61;53.20;99782.28;5012480;28;20014;-78
2022/11/04 04:45:49;;;;;;;29.70;19.33;;;;;;;10.94;54.01;99713.41;5010494;28;20120;-79
2022/11/04 04:48:16;;;;;;;32.53;21.20;;;;;;;11.33;54.06;99798.69;5007992;28;20107;-79
2022/11/04 04:50:50;;;;;;;29.75;21.35;;;;;;;10.87;54.17;99697.44;5012264;28;20060;-79
2022/11/04 04:53:15;;;;;;;28.75;21.35;;;;;;;11.08;54.48;99729.31;5012147;28;20033;-78
2022/11/04 04:55:41;;;;;;;24.92;19.33;;;;;;;10.46;53.94;99622.97;5011016;28;20026;-79
2022/11/04 04:58:06;;;;;;;29.52;21.00;;;;;;;10.78;54.11;99706.41;5012148;28;20469;-79
2022/11/04 05:00:32;;;;;;;28.65;21.75;;;;;;;11.51;54.12;99784.34;5010945;28;20384;-79
2022/11/04 05:02:58;;;;;;;29.17;22.52;;;;;;;11.03;54.01;99757.25;5012210;28;20053;-78
2022/11/04 05:05:23;;;;;;;34.13;24.52;;;;;;;10.87;54.29;99699.25;5012109;28;20037;-78
2022/11/04 05:07:49;;;;;;;28.33;23.98;;;;;;;11.29;54.01;99786.00;5011616;28;20065;-78
2022/11/04 05:10:16;;;;;;;33.05;24.65;;;;;;;11.30;54.32;99785.84;5011860;28;20552;-79
2022/11/04 05:15:27;;;;;;;30.23;23.40;;;;;;;10.66;54.07;99670.84;5011984;28;20033;-78
2022/11/04 05:17:57;;;;;;;35.22;22.98;;;;;;;11.13;53.83;99776.34;5010757;28;20076;-78
2022/11/04 05:20:23;;;;;;;26.95;22.75;;;;;;;10.76;53.81;99689.94;5011859;28;20511;-78
2022/11/04 05:22:49;;;;;;;32.78;22.13;;;;;;;10.83;54.02;99712.81;5011713;28;20028;-78
2022/11/04 05:25:14;;;;;;;29.17;23.20;;;;;;;11.40;54.00;99810.22;5011671;28;20055;-79
2022/11/04 05:27:40;;;;;;;34.28;24.35;;;;;;;11.40;53.65;99802.28;5011535;28;20033;-78
2022/11/04 05:30:06;;;;;;;32.88;22.75;;;;;;;11.44;53.90;99823.91;5011738;28;20068;-78
2022/11/04 05:32:31;;;;;;;28.48;21.15;;;;;;;11.25;53.72;99776.78;5011801;28;20022;-78
2022/11/04 05:34:57;;;;;;;34.30;22.13;;;;;;;10.44;54.33;99656.63;5011781;28;20506;-78
2022/11/04 05:37:23;;;;;;;31.73;21.25;;;;;;;10.89;54.13;99734.25;5011749;28;20112;-78
2022/11/04 05:39:48;;;;;;;30.70;23.33;;;;;;;11.43;53.54;99827.53;5011870;28;20029;-78
2022/11/04 05:42:13;;;;;;;34.10;22.27;;;;;;;10.62;53.91;99688.03;5011475;28;20029;-78
2022/11/04 05:44:39;;;;;;;30.80;23.67;;;;;;;10.55;53.88;99660.69;5011573;28;20057;-79
2022/11/04 05:47:04;;;;;;;32.53;23.77;;;;;;;10.40;53.78;99626.28;5011522;28;20022;-78
2022/11/04 05:49:30;;;;;;;32.92;22.35;;;;;;;11.24;53.81;99754.81;5011974;28;20387;-78
2022/11/04 05:51:55;;;;;;;35.55;23.20;;;;;;;11.07;53.89;99726.84;5011563;28;20021;-78
2022/11/04 05:54:21;;;;;;;33.38;23.70;;;;;;;11.24;53.89;99746.91;5011428;28;20026;-79
2022/11/04 05:56:46;;;;;;;34.95;25.25;;;;;;;11.09;54.08;99716.91;5011451;28;20037;-78
2022/11/04 05:59:12;;;;;;;35.53;23.88;;;;;;;11.54;54.19;99781.34;5011526;28;20029;-78
2022/11/04 06:01:40;;;;;;;36.20;26.52;;;;;;;11.74;54.65;99820.34;5011553;28;20033;-79
2022/11/04 06:04:13;;;;;;;34.28;26.83;;;;;;;11.20;54.17;99750.06;5011469;28;20405;-78
2022/11/04 06:06:38;;;;;;;37.15;23.73;;;;;;;10.90;54.49;99714.75;5011164;28;20014;-78
2022/11/04 06:09:04;;;;;;;33.22;24.30;;;;;;;10.76;54.70;99706.59;5010054;28;20025;-78
2022/11/04 06:11:31;;;;;;;30.25;23.38;;;;;;;11.63;54.83;99830.53;5011473;28;20029;-79
2022/11/04 06:13:57;;;;;;;36.72;24.33;;;;;;;11.64;54.68;99835.63;5009931;28;20025;-78
2022/11/04 06:16:23;;;;;;;38.78;25.10;;;;;;;11.68;54.67;99844.88;5011203;28;20080;-79
2022/11/04 06:18:49;;;;;;;34.22;24.52;;;;;;;11.55;55.13;99809.44;5011059;28;20061;-79
2022/11/04 06:21:17;;;;;;;33.10;22.52;;;;;;;11.77;55.16;99838.53;5009661;28;20514;-79
2022/11/04 06:23:43;;;;;;;33.67;23.52;;;;;;;11.30;54.29;99766.50;5010880;28;20036;-79
2022/11/04 06:26:10;;;;;;;33.70;23.88;;;;;;;11.89;54.66;99841.59;5013159;28;20029;-78
2022/11/04 06:28:37;;;;;;;34.60;23.77;;;;;;;11.93;54.09;99842.91;5014774;28;20021;-78
2022/11/04 06:31:05;;;;;;;32.13;24.60;;;;;;;11.74;54.40;99807.13;5014726;28;20026;-78
2022/11/04 06:33:31;;;;;;;38.97;27.90;;;;;;;11.95;54.47;99842.72;5014758;28;20105;-78
2022/11/04 06:36:02;;;;;;;34.85;24.92;;;;;;;10.97;53.89;99684.00;5014779;28;20032;-78
2022/11/04 06:38:30;;;;;;;35.70;26.23;;;;;;;11.80;54.02;99810.09;5014983;28;20064;-78
2022/11/04 06:40:56;;;;;;;39.63;26.95;;;;;;;11.65;53.68;99773.00;5014713;28;20273;-78
2022/11/04 06:43:21;;;;;;;35.05;27.75;;;;;;;12.07;53.88;99836.81;5014626;28;20033;-78
2022/11/04 06:45:57;;;;;;;36.67;25.75;;;;;;;12.29;54.53;99850.97;5014614;28;20030;-78
2022/11/04 06:48:23;;;;;;;40.95;28.85;;;;;;;12.47;54.04;99855.91;5014681;28;20032;-78
2022/11/04 06:50:49;;;;;;;37.38;24.73;;;;;;;12.05;54.68;99791.16;5013224;28;20034;-78
2022/11/04 06:53:14;;;;;;;33.25;24.77;;;;;;;12.11;54.41;99810.78;5013122;28;20422;-79
2022/11/04 06:55:40;;;;;;;33.40;26.40;;;;;;;11.94;54.53;99753.75;5014293;28;20438;-78
2022/11/04 06:58:05;;;;;;;35.15;25.85;;;;;;;12.34;54.60;99789.53;5014306;28;20403;-79
2022/11/04 07:00:31;;;;;;;40.95;29.20;;;;;;;12.14;54.27;99741.63;5008017;28;20041;-79
2022/11/04 07:02:56;;;;;;;42.20;28.30;;;;;;;12.18;54.33;99753.47;5010695;28;20026;-79
2022/11/04 07:05:21;;;;;;;42.20;27.60;;;;;;;12.00;54.81;99700.09;5013038;28;20022;-78
2022/11/04 07:07:47;;;;;;;34.30;26.23;;;;;;;12.42;54.91;99762.94;5012177;28;20125;-79
2022/11/04 07:10:12;;;;;;;39.63;28.33;;;;;;;12.26;55.20;99712.84;5014009;28;20044;-79
2022/11/04 07:12:38;;;;;;;41.85;27.85;;;;;;;12.79;55.67;99803.56;5012947;28;20017;-78
2022/11/04 07:15:04;;;;;;;45.35;29.00;;;;;;;12.34;55.93;99704.81;4998049;28;20038;-78
2022/11/04 07:17:29;;;;;;;43.88;30.05;;;;;;;13.04;56.40;99797.75;5013163;28;20014;-79
2022/11/04 07:19:55;;;;;;;39.42;28.63;;;;;;;12.80;56.61;99757.53;5013738;28;20032;-79
2022/11/04 07:22:20;;;;;;;43.70;28.52;;;;;;;13.10;57.08;99784.75;5013276;28;20083;-79
2022/11/04 07:24:45;;;;;;;37.40;26.75;;;;;;;13.00;57.10;99769.97;5012149;28;20022;-79
2022/11/04 07:27:11;;;;;;;38.85;26.52;;;;;;;12.95;57.21;99758.28;5013353;28;20419;-78
2022/11/04 07:29:36;;;;;;;43.83;26.83;;;;;;;13.04;58.34;99760.63;5011662;28;20542;-79
2022/11/04 07:32:03;;;;;;;50.05;28.92;;;;;;;13.72;58.72;99853.13;4994177;28;20074;-79
2022/11/04 07:34:29;;;;;;;44.97;28.58;;;;;;;13.28;58.83;99825.75;4994172;28;20033;-78
2022/11/04 07:36:54;;;;;;;45.92;27.90;;;;;;;13.33;59.47;99799.50;5007688;28;20030;-78
2022/11/04 07:39:19;;;;;;;44.67;26.88;;;;;;;13.04;59.47;99762.47;5013377;28;20521;-78
2022/11/04 07:41:45;;;;;;;54.75;31.52;;;;;;;13.38;59.19;99767.13;5008439;28;20412;-78
2022/11/04 07:44:11;;;;;;;43.13;29.15;;;;;;;12.94;58.98;99685.91;5010628;28;20033;-78
2022/11/04 07:46:37;;;;;;;48.92;30.15;;;;;;;13.84;58.75;99819.75;5003571;28;20025;-78
2022/11/04 07:49:02;;;;;;;44.47;29.48;;;;;;;14.17;58.56;99851.88;5012918;28;20092;-78
2022/11/04 07:51:31;;;;;;;43.72;28.80;;;;;;;14.25;58.22;99839.28;5003646;28;20033;-78
2022/11/04 07:53:56;;;;;;;44.30;29.83;;;;;;;14.31;58.45;99827.88;5003277;28;20107;-79
2022/11/04 07:56:22;;;;;;;51.63;32.00;;;;;;;14.07;58.64;99800.94;5034059;28;20022;-79
2022/11/04 07:58:48;;;;;;;49.95;31.67;;;;;;;13.96;58.67;99773.09;5003962;28;20025;-79
2022/11/04 08:01:17;;;;;;;49.50;31.23;;;;;;;13.78;58.62;99730.28;5003536;28;20067;-78
2022/11/04 08:03:42;;;;;;;47.38;28.00;;;;;;;14.45;58.54;99823.50;5020134;28;20112;-78
2022/11/04 08:06:10;;;;;;;45.05;29.65;;;;;;;14.53;58.21;99825.97;5003087;28;20109;-78
2022/11/04 08:08:36;;;;;;;34.05;24.08;;;;;;;14.06;58.37;99738.22;5010865;28;20056;-78
2022/11/04 08:11:23;;;;;;;26.92;19.85;;;;;;;14.59;58.95;99819.06;5012003;28;20120;-79
2022/11/04 08:13:49;;;;;;;33.22;21.20;;;;;;;14.18;59.12;99766.72;5003931;28;20431;-78
2022/11/04 08:16:17;;;;;;;34.58;22.40;;;;;;;14.58;59.16;99812.09;5003527;28;20109;-78
2022/11/04 08:18:43;;;;;;;33.15;21.83;;;;;;;14.61;59.20;99811.72;5009133;28;20037;-78
2022/11/04 08:21:09;;;;;;;30.73;21.67;;;;;;;14.64;59.17;99800.69;5004269;28;20491;-79
2022/11/04 08:23:35;;;;;;;34.92;23.50;;;;;;;14.02;59.02;99697.16;5004150;28;20040;-79
2022/11/04 08:26:01;;;;;;;33.15;23.05;;;;;;;14.39;59.31;99738.41;4999550;28;20034;-78
2022/11/04 08:28:28;;;;;;;35.13;24.98;;;;;;;14.76;59.49;99788.47;5010502;28;20034;-78
2022/11/04 08:30:56;;;;;;;31.48;21.88;;;;;;;14.81;59.64;99783.38;5004200;28;20026;-78
2022/11/04 08:33:26;;;;;;;28.15;21.15;;;;;;;14.78;59.80;99782.97;5009224;28;20449;-78
2022/11/04 08:35:53;;;;;;;30.48;21.75;;;;;;;14.32;59.98;99701.22;5003134;28;20509;-79
2022/11/04 08:38:19;;;;;;;29.42;23.25;;;;;;;14.80;60.15;99778.25;5009884;28;20041;-79
2022/11/04 08:40:45;;;;;;;30.70;21.98;;;;;;;14.06;59.70;99653.28;4994934;28;20026;-78
2022/11/04 08:43:10;;;;;;;37.53;24.58;;;;;;;14.90;59.99;99782.22;5008452;28;20033;-78
2022/11/04 08:45:41;;;;;;;30.33;22.33;;;;;;;13.99;60.46;99634.66;5002435;28;20043;-78
2022/11/04 08:48:06;;;;;;;30.35;22.35;;;;;;;14.76;60.50;99743.28;5014981;28;20084;-79
2022/11/04 08:50:32;;;;;;;33.33;22.92;;;;;;;14.85;60.36;99754.56;5005103;28;20033;-78
2022/11/04 08:52:57;;;;;;;33.88;24.00;;;;;;;14.89;60.37;99737.22;4995681;28;20034;-78
2022/11/04 08:55:22;;;;;;;40.33;28.00;;;;;;;14.85;60.35;99725.31;5009550;28;20049;-78
2022/11/04 08:57:48;;;;;;;60.83;43.72;;;;;;;14.68;60.67;99716.88;5011029;28;20029;-78
2022/11/04 09:00:15;;;;;;;35.15;25.35;;;;;;;14.94;60.80;99732.94;5005302;28;20585;-78
2022/11/04 09:02:41;;;;;;;30.90;22.73;;;;;;;14.76;60.58;99707.91;5008809;28;20419;-78
2022/11/04 09:05:07;;;;;;;27.13;20.63;;;;;;;14.67;60.91;99664.75;5005682;28;20030;-78
2022/11/04 09:07:34;;;;;;;30.90;23.15;;;;;;;15.22;60.88;99737.25;5002485;28;20054;-78
2022/11/04 09:10:01;;;;;;;28.02;21.80;;;;;;;15.19;60.40;99727.03;5006354;28;20487;-79
2022/11/04 09:12:26;;;;;;;30.42;23.02;;;;;;;14.78;60.56;99661.50;5009638;28;20064;-79
2022/11/04 09:14:52;;;;;;;33.17;22.92;;;;;;;15.23;60.47;99705.16;5011588;28;20025;-79
2022/11/04 09:17:17;;;;;;;31.63;20.90;;;;;;;15.46;60.24;99726.00;4992898;28;20038;-79
2022/11/04 09:19:43;;;;;;;30.42;20.15;;;;;;;14.34;60.36;99536.34;4991710;28;20032;-78
2022/11/04 09:22:08;;;;;;;28.25;21.75;;;;;;;15.13;60.46;99651.53;5003219;28;20120;-78
2022/11/04 09:24:33;;;;;;;29.10;21.80;;;;;;;15.12;60.08;99649.91;5004184;28;20034;-78
2022/11/04 09:26:59;;;;;;;30.83;21.40;;;;;;;14.96;59.90;99601.63;5002236;28;20029;-79
2022/11/04 09:29:25;;;;;;;35.25;24.80;;;;;;;15.07;60.07;99630.25;5005095;28;20416;-78
2022/11/04 09:31:51;;;;;;;31.98;21.70;;;;;;;15.07;59.85;99604.50;5007805;28;20030;-79
2022/11/04 09:34:16;;;;;;;29.80;21.48;;;;;;;15.77;60.06;99709.47;4999990;28;20088;-80
2022/11/04 09:36:43;;;;;;;32.35;22.80;;;;;;;15.45;59.50;99649.88;5006574;28;20026;-79
2022/11/04 09:39:09;;;;;;;29.60;22.52;;;;;;;15.50;59.41;99630.63;5007082;28;20479;-79
2022/11/04 09:41:47;;;;;;;29.77;22.92;;;;;;;16.09;59.23;99698.94;5001396;28;20042;-79
2022/11/04 09:44:30;;;;;;;26.20;20.30;;;;;;;16.03;58.65;99652.66;5009433;28;20512;-79
2022/11/04 09:47:00;;;;;;;37.08;27.08;;;;;;;16.34;58.30;99681.22;4992058;28;20057;-80
2022/11/04 09:49:31;;;;;;;33.33;24.05;;;;;;;16.09;58.15;99651.00;5004139;28;20413;-79
2022/11/04 09:51:58;;;;;;;41.22;27.15;;;;;;;15.64;57.97;99559.63;5010749;28;20030;-79
2022/11/04 09:54:30;;;;;;;35.65;26.48;;;;;;;14.96;57.90;99463.38;5008195;28;20426;-79
2022/11/04 09:56:58;;;;;;;;;;;;;;;16.31;59.01;99648.84;5014160;28;20414;-80
2022/11/04 09:59:31;;;;;;;32.55;22.83;;;;;;;15.59;57.79;99552.22;5011909;28;20044;-79
2022/11/04 10:02:21;;;;;;;33.50;24.08;;;;;;;16.41;58.26;99650.06;4999989;28;20038;-78
2022/11/04 10:04:56;;;;;;;27.05;21.85;;;;;;;16.39;57.14;99629.97;5018804;28;20095;-80
2022/11/04 10:07:46;;;;;;;39.00;22.10;;;;;;;15.64;57.59;99493.91;5009377;28;20137;-79
2022/11/04 10:10:21;;;;;;;39.45;25.58;;;;;;;16.65;57.24;99616.50;5002187;28;20035;-79
2022/11/04 10:13:17;;;;;;;32.92;22.83;;;;;;;16.73;57.35;99620.78;5015206;28;20030;-79
2022/11/04 10:16:02;;;;;;;30.70;21.42;;;;;;;16.33;57.11;99557.00;5014163;28;20160;-79
2022/11/04 10:18:59;;;;;;;27.50;20.98;;;;;;;16.88;57.07;99602.59;4996379;28;20034;-79
2022/11/04 10:21:34;;;;;;;29.88;21.38;;;;;;;17.01;56.65;99599.00;5000087;28;20057;-79
2022/11/04 10:24:29;;;;;;;30.02;21.55;;;;;;;17.04;56.13;99567.38;5009920;28;20036;-79
2022/11/04 10:27:11;;;;;;;26.60;19.50;;;;;;;17.23;55.70;99575.44;5010334;28;20029;-79
2022/11/04 10:29:40;;;;;;;32.95;22.33;;;;;;;17.35;55.55;99573.69;5011617;28;20581;-79
2022/11/04 10:32:18;;;;;;;32.53;23.27;;;;;;;17.44;55.31;99569.69;5011346;28;20049;-77
2022/11/04 10:35:02;;;;;;;28.98;21.55;;;;;;;17.26;55.49;99519.78;5006191;28;20030;-78
2022/11/04 10:37:29;;;;;;;29.45;20.58;;;;;;;16.91;54.93;99460.00;5011702;28;20487;-79
2022/11/04 10:40:14;;;;;;;30.13;22.00;;;;;;;17.54;54.79;99543.28;5005995;28;20052;-80
2022/11/04 10:42:40;;;;;;;35.45;21.58;;;;;;;17.69;54.73;99553.63;5004274;28;20415;-79
2022/11/04 10:45:11;;;;;;;31.63;20.92;;;;;;;16.88;54.69;99429.25;5005127;28;20038;-79
2022/11/04 10:47:58;;;;;;;28.98;20.48;;;;;;;17.38;54.66;99511.84;5005255;28;20560;-80
2022/11/04 10:50:31;;;;;;;29.17;20.63;;;;;;;17.20;54.79;99463.81;5013024;28;20455;-80
2022/11/04 10:53:16;;;;;;;28.42;20.15;;;;;;;17.66;54.80;99530.00;5009547;28;20034;-79
2022/11/04 10:56:17;;;;;;;30.70;20.77;;;;;;;17.68;54.81;99528.75;5010302;28;20029;-79
2022/11/04 10:58:46;;;;;;;30.27;22.15;;;;;;;17.52;54.76;99497.31;5005904;28;20037;-79
2022/11/04 11:01:27;;;;;;;33.15;21.63;;;;;;;17.43;54.74;99470.09;5013951;28;20125;-80
2022/11/04 11:03:53;;;;;;;29.23;21.75;;;;;;;17.69;54.42;99517.03;5007906;28;20030;-78
2022/11/04 11:06:25;;;;;;;29.20;21.63;;;;;;;17.74;54.31;99519.84;5010682;28;20038;-79
2022/11/04 11:08:53;;;;;;;28.83;21.67;;;;;;;17.70;54.38;99518.69;5012412;28;20038;-80
2022/11/04 11:11:36;;;;;;;31.33;24.25;;;;;;;17.30;54.41;99445.44;5010399;28;20052;-78
2022/11/04 11:14:01;;;;;;;28.38;19.60;;;;;;;17.27;54.43;99453.88;5013835;28;20026;-78
2022/11/04 11:16:27;;;;;;;31.77;22.67;;;;;;;17.52;54.49;99475.94;5010805;28;20404;-80
2022/11/04 11:19:16;;;;;;;31.60;22.13;;;;;;;17.68;54.45;99503.91;5011332;28;20514;-79
2022/11/04 11:21:48;;;;;;;34.30;20.85;;;;;;;17.61;54.61;99489.81;5013899;28;20046;-79
2022/11/04 11:24:18;;;;;;;32.53;22.70;;;;;;;17.04;54.90;99411.84;5012319;28;20446;-79
2022/11/04 11:26:48;;;;;;;28.45;21.25;;;;;;;17.58;55.08;99490.25;5013752;28;20084;-79
2022/11/04 11:29:21;;;;;;;27.20;21.13;;;;;;;17.13;54.80;99421.22;5013861;28;20025;-79
2022/11/04 11:31:47;;;;;;;28.88;21.92;;;;;;;17.60;54.86;99467.63;5013276;28;20044;-80
2022/11/04 11:34:19;;;;;;;29.92;21.60;;;;;;;16.88;54.68;99343.13;5011920;28;20505;-79
2022/11/04 11:36:46;;;;;;;30.85;22.27;;;;;;;17.17;54.71;99400.22;5013345;28;20033;-79
2022/11/04 11:39:13;;;;;;;30.20;22.15;;;;;;;17.65;54.68;99446.41;5013631;28;20072;-79
2022/11/04 11:41:53;;;;;;;26.00;18.50;;;;;;;17.27;54.87;99408.53;5012652;28;20482;-79
2022/11/04 11:44:18;;;;;;;29.60;18.73;;;;;;;17.65;54.64;99443.75;5011212;28;20378;-79
2022/11/04 11:46:54;;;;;;;27.75;19.10;;;;;;;16.95;54.62;99319.84;5011248;28;20034;-79
2022/11/04 11:49:34;;;;;;;25.00;18.83;;;;;;;17.03;54.64;99336.34;5005642;28;20018;-79
2022/11/04 11:52:30;;;;;;;24.80;19.92;;;;;;;17.56;54.67;99442.44;5006316;28;20517;-79
2022/11/04 11:55:15;;;;;;;27.20;19.70;;;;;;;17.60;54.69;99424.09;5010624;28;20030;-79
2022/11/04 11:57:43;;;;;;;26.70;22.08;;;;;;;17.67;54.65;99428.34;5012119;28;20028;-78
2022/11/04 12:00:14;;;;;;;31.08;22.50;;;;;;;17.71;54.64;99418.84;5011639;28;20022;-79
2022/11/04 12:03:29;;;;;;;28.33;20.20;;;;;;;17.73;54.62;99415.94;5002331;28;20493;-80